Time;durP1;ratioP1;P1;durP2;ratioP2;P2;SDS_P1;SDS_P2;PMS_P1;PMS_P2;Temp;Humidity;BMP_temperature;BMP_pressure;BME280_temperature;BME280_humidity;BME280_pressure;Samples;Min_cycle;Max_cycle;Signal;HPM_P1;HPM_P2
2022/04/12 00:01:40;;;;;;;;;3.67;3.67;;;;;17.27;100.00;100251.28;6365492;22;45467;-95
2022/04/12 00:04:06;;;;;;;;;2.00;2.00;;;;;17.30;100.00;100253.97;6366919;22;45283;-94
2022/04/12 00:06:34;;;;;;;;;2.00;2.00;;;;;17.33;100.00;100261.06;6366361;22;45424;-94
2022/04/12 00:09:00;;;;;;;;;4.00;3.00;;;;;17.20;100.00;100237.09;6366352;22;47324;-94
2022/04/12 00:11:26;;;;;;;;;3.00;3.00;;;;;17.24;100.00;100253.94;6365887;22;45257;-94
2022/04/12 00:13:52;;;;;;;;;4.67;3.00;;;;;17.19;100.00;100249.44;6366569;22;45219;-95
2022/04/12 00:16:17;;;;;;;;;3.67;3.67;;;;;17.22;100.00;100245.03;6365769;22;45206;-94
2022/04/12 00:21:27;;;;;;;;;3.67;2.00;;;;;17.13;100.00;100245.84;6369418;22;45264;-94
2022/04/12 00:23:52;;;;;;;;;3.00;3.00;;;;;17.14;100.00;100243.19;6367762;22;45254;-95
2022/04/12 00:26:18;;;;;;;;;3.00;3.00;;;;;17.12;100.00;100239.63;6367018;22;45480;-95
2022/04/12 00:28:43;;;;;;;;;1.67;1.67;;;;;17.14;100.00;100252.88;6367894;22;47351;-93
2022/04/12 00:31:09;;;;;;;;;3.00;2.00;;;;;17.05;100.00;100235.16;6369244;22;45425;-95
2022/04/12 00:33:34;;;;;;;;;3.33;3.00;;;;;17.12;100.00;100267.91;6368032;22;45330;-95
2022/04/12 00:36:02;;;;;;;;;1.00;1.00;;;;;17.03;100.00;100258.09;6368042;22;45388;-96
2022/04/12 00:38:33;;;;;;;;;3.00;3.00;;;;;17.05;100.00;100262.56;6367825;22;48126;-94
2022/04/12 00:41:04;;;;;;;;;4.00;4.00;;;;;16.96;100.00;100249.19;6367909;22;45323;-94
2022/04/12 00:43:35;;;;;;;;;3.00;3.00;;;;;16.88;100.00;100233.19;6368016;22;45227;-95
2022/04/12 00:46:02;;;;;;;;;3.00;3.00;;;;;16.89;100.00;100245.59;6367310;22;45424;-94
2022/04/12 00:48:28;;;;;;;;;3.00;3.00;;;;;16.86;100.00;100235.84;6374242;22;47202;-93
2022/04/12 00:51:02;;;;;;;;;2.67;2.00;;;;;16.82;100.00;100225.19;6387225;22;45192;-95
2022/04/12 00:53:28;;;;;;;;;3.67;3.67;;;;;16.81;100.00;100224.28;6387938;22;45322;-95
2022/04/12 00:55:54;;;;;;;;;2.00;2.00;;;;;16.82;100.00;100236.69;6390195;22;44757;-95
2022/04/12 00:58:20;;;;;;;;;2.33;2.33;;;;;16.80;100.00;100240.19;6378797;22;46967;-94
2022/04/12 01:00:48;;;;;;;;;3.00;3.00;;;;;16.67;100.00;100229.44;6372107;22;45298;-96
2022/04/12 01:03:14;;;;;;;;;4.33;3.00;;;;;16.67;100.00;100221.50;6373319;22;45298;-96
2022/04/12 01:05:40;;;;;;;;;4.67;3.00;;;;;16.66;100.00;100219.72;6371812;22;45298;-95
2022/04/12 01:08:05;;;;;;;;;2.33;2.33;;;;;16.63;100.00;100217.03;6372776;22;47124;-94
2022/04/12 01:10:34;;;;;;;;;4.00;2.00;;;;;16.62;100.00;100228.50;6374345;22;45443;-95
2022/04/12 01:13:00;;;;;;;;;6.67;4.00;;;;;16.53;100.00;100223.97;6375143;22;45140;-95
2022/04/12 01:15:25;;;;;;;;;4.33;3.33;;;;;16.58;100.00;100221.38;6376158;22;45339;-95
2022/04/12 01:17:52;;;;;;;;;3.00;2.67;;;;;16.51;100.00;100215.13;6379688;22;48370;-96
2022/04/12 01:20:23;;;;;;;;;3.00;3.00;;;;;16.55;100.00;100222.22;6381265;22;45197;-95
2022/04/12 01:23:04;;;;;;;;;2.33;2.33;;;;;16.43;100.00;100215.03;6388629;22;45210;-93
2022/04/12 01:25:30;;;;;;;;;3.67;3.67;;;;;16.48;100.00;100231.88;6390953;22;44906;-93
2022/04/12 01:27:56;;;;;;;;;4.00;3.00;;;;;16.46;100.00;100222.13;6384986;22;46561;-95
2022/04/12 01:30:24;;;;;;;;;4.67;4.00;;;;;16.39;100.00;100210.56;6393156;22;45260;-95
2022/04/12 01:41:13;;;;;;;;;3.33;3.33;;;;;16.36;100.00;100239.66;6387122;22;45188;-95
2022/04/12 01:43:39;;;;;;;;;2.33;2.33;;;;;16.22;100.00;100226.22;6343908;22;45277;-95
2022/04/12 01:46:04;;;;;;;;;3.33;2.33;;;;;16.23;100.00;100241.25;6345605;22;45422;-93
2022/04/12 01:48:32;;;;;;;;;4.33;2.33;;;;;16.28;100.00;100253.69;6346062;22;47125;-94
2022/04/12 01:50:57;;;;;;;;;4.00;4.00;;;;;16.17;100.00;100242.94;6346568;22;45212;-94
2022/04/12 01:53:23;;;;;;;;;5.00;5.00;;;;;16.14;100.00;100247.28;6344235;22;45418;-94
2022/04/12 01:55:48;;;;;;;;;2.00;2.00;;;;;16.15;100.00;100243.78;6341604;22;45970;-94
2022/04/12 01:58:14;;;;;;;;;2.67;2.67;;;;;16.14;100.00;100247.28;6340389;22;46768;-95
2022/04/12 02:00:40;;;;;;;;;2.00;2.00;;;;;16.09;100.00;100247.22;6340074;22;45381;-94
2022/04/12 02:03:06;;;;;;;;;2.67;2.67;;;;;16.06;100.00;100248.06;6341134;22;45414;-94
2022/04/12 02:05:31;;;;;;;;;3.33;3.33;;;;;16.05;100.00;100237.47;6340254;22;45530;-95
2022/04/12 02:07:57;;;;;;;;;2.67;2.67;;;;;16.01;100.00;100225.91;6340386;22;48277;-95
2022/04/12 02:10:25;;;;;;;;;2.00;2.00;;;;;15.90;100.00;100203.69;6340371;22;45373;-95
2022/04/12 02:12:51;;;;;;;;;6.00;3.00;;;;;15.96;100.00;100215.25;6340329;22;45143;-94
2022/04/12 02:15:16;;;;;;;;;2.67;2.67;;;;;15.85;100.00;100196.56;6339801;22;45234;-95
2022/04/12 02:17:42;;;;;;;;;3.00;3.00;;;;;15.90;100.00;100199.28;6340621;22;48029;-95
2022/04/12 02:20:08;;;;;;;;;1.33;1.33;;;;;15.85;100.00;100198.31;6341075;22;45795;-95
2022/04/12 02:22:35;;;;;;;;;6.00;4.67;;;;;15.93;100.00;100214.31;6340469;22;45426;-95
2022/04/12 02:25:01;;;;;;;;;3.00;3.00;;;;;15.84;100.00;100189.50;6340815;22;45333;-94
2022/04/12 02:27:26;;;;;;;;;5.67;3.00;;;;;15.95;100.00;100215.25;6340222;22;47857;-95
2022/04/12 02:29:51;;;;;;;;;1138.00;1136.75;;;;;15.85;100.00;100196.56;6339885;22;45404;-94
2022/04/12 02:32:17;;;;;;;;;1142.67;1142.67;;;;;15.83;100.00;100197.41;6308834;22;45413;-96
2022/04/12 02:34:42;;;;;;;;;5.33;3.00;;;;;15.82;100.00;100185.94;6308483;22;45504;-96
2022/04/12 02:37:08;;;;;;;;;4.33;3.33;;;;;15.90;100.00;100201.06;6307811;22;48603;-95
2022/04/12 02:39:33;;;;;;;;;21.67;18.67;;;;;15.76;100.00;100188.50;6334319;22;45243;-94
2022/04/12 02:42:01;;;;;;;;;6.33;6.00;;;;;15.85;100.00;100217.72;6307349;22;45724;-94
2022/04/12 02:44:26;;;;;;;;;3.67;3.00;;;;;15.83;100.00;100210.63;6308804;22;45325;-95
2022/04/12 02:46:52;;;;;;;;;2.00;2.00;;;;;15.93;100.00;100228.44;6334753;22;47111;-95
2022/04/12 02:49:17;;;;;;;;;3.67;2.00;;;;;15.83;100.00;100214.19;6308340;22;45451;-94
2022/04/12 02:51:42;;;;;;;;;2.00;2.00;;;;;15.88;100.00;100219.53;6334141;22;45095;-94
2022/04/12 02:54:08;;;;;;;;;2.00;2.00;;;;;15.75;100.00;100202.59;6308854;22;45407;-95
2022/04/12 02:56:33;;;;;;;;;2.00;2.00;;;;;15.75;100.00;100199.94;6307679;22;46781;-95
2022/04/12 02:58:59;;;;;;;;;4.00;3.33;;;;;15.85;100.00;100215.09;6308019;22;45562;-94
2022/04/12 03:01:25;;;;;;;;;3.00;3.00;;;;;15.71;100.00;100195.47;6308717;22;45419;-96
2022/04/12 03:03:50;;;;;;;;;2.33;2.33;;;;;15.77;100.00;100199.97;6308442;22;45319;-94
2022/04/12 03:06:16;;;;;;;;;3.00;3.00;;;;;15.72;100.00;100189.34;6334202;22;46867;-96
2022/04/12 03:08:41;;;;;;;;;5.00;4.00;;;;;15.70;100.00;100169.88;6308232;22;45397;-95
2022/04/12 03:11:07;;;;;;;;;2.00;2.00;;;;;15.79;100.00;100196.50;6334808;22;45435;-96
2022/04/12 03:13:34;;;;;;;;;3.00;3.00;;;;;15.67;100.00;100160.13;6334351;22;45416;-95
2022/04/12 03:16:00;;;;;;;;;5.33;3.33;;;;;15.69;100.00;100169.00;6334704;22;47198;-96
2022/04/12 03:18:25;;;;;;;;;3.00;3.00;;;;;15.70;100.00;100172.53;6308735;22;45119;-94
2022/04/12 03:20:51;;;;;;;;;3.67;3.67;;;;;15.59;100.00;100161.81;6308983;22;45430;-94
2022/04/12 03:23:18;;;;;;;;;3.67;3.67;;;;;15.65;100.00;100183.03;6308625;22;45281;-95
2022/04/12 03:25:46;;;;;;;;;4.33;3.33;;;;;15.55;100.00;100159.97;6308401;22;47668;-95
2022/04/12 03:28:11;;;;;;;;;2.00;2.00;;;;;15.56;100.00;100173.22;6335043;22;45420;-94
2022/04/12 03:30:37;;;;;;;;;1.33;1.33;;;;;15.56;100.00;100175.88;6308461;22;45707;-96
2022/04/12 03:33:02;;;;;;;;;5.00;3.00;;;;;15.50;100.00;100171.38;6308595;22;45365;-95
2022/04/12 03:35:28;;;;;;;;;3.33;3.33;;;;;15.50;100.00;100167.81;6307873;22;47127;-94
2022/04/12 03:38:00;;;;;;;;;2.00;2.00;;;;;15.51;100.00;100169.63;6333475;22;45373;-96
2022/04/12 03:40:27;;;;;;;;;3.67;3.67;;;;;15.44;100.00;100176.53;6310523;22;45368;-95
2022/04/12 03:42:53;;;;;;;;;3.67;2.33;;;;;15.47;100.00;100191.56;6335686;22;45443;-95
2022/04/12 03:45:19;;;;;;;;;3.00;3.00;;;;;15.44;100.00;100212.66;6333604;22;47766;-95
2022/04/12 03:47:44;;;;;;;;;3.67;3.67;;;;;15.36;100.00;100204.66;6308190;22;45317;-95
2022/04/12 03:50:10;;;;;;;;;2.00;2.00;;;;;15.44;100.00;100212.66;6308892;22;45471;-95
2022/04/12 03:52:35;;;;;;;;;3.00;2.67;;;;;15.34;100.00;100198.41;6334495;22;45308;-96
2022/04/12 03:55:00;;;;;;;;;4.00;4.00;;;;;15.30;100.00;100192.19;6308047;22;46945;-96
2022/04/12 03:57:26;;;;;;;;;2.67;2.67;;;;;15.40;100.00;100203.81;6308723;22;45234;-96
2022/04/12 03:59:51;;;;;;;;;3.33;3.00;;;;;15.33;100.00;100184.31;6308620;22;45193;-96
2022/04/12 04:02:16;;;;;;;;;2.33;2.33;;;;;15.33;100.00;100181.69;6334481;22;45399;-94
2022/04/12 04:04:42;;;;;;;;;4.00;4.00;;;;;15.33;100.00;100181.69;6333636;22;47951;-95
2022/04/12 04:07:08;;;;;;;;;4.00;3.00;;;;;15.24;100.00;100171.81;6307754;22;45246;-95
2022/04/12 04:09:33;;;;;;;;;5.00;3.67;;;;;15.31;100.00;100188.66;6334940;22;45819;-95
2022/04/12 04:12:03;;;;;;;;;4.00;2.00;;;;;15.24;100.00;100174.47;6334806;22;45355;-95
2022/04/12 04:14:31;;;;;;;;;1.67;1.33;;;;;15.30;100.00;100203.66;6334210;22;48048;-95
2022/04/12 04:16:57;;;;;;;;;4.00;1.33;;;;;15.23;100.00;100198.25;6308172;22;45654;-96
2022/04/12 04:19:23;;;;;;;;;3.00;3.00;;;;;15.25;100.00;100205.34;6309296;22;45194;-95
2022/04/12 04:21:50;;;;;;;;;2.00;2.00;;;;;15.27;100.00;100208.00;6343390;22;45218;-96
2022/04/12 04:24:16;;;;;;;;;3.00;2.00;;;;;15.18;100.00;100195.50;6323645;22;46541;-96
2022/04/12 04:26:42;;;;;;;;;2.00;2.00;;;;;15.13;100.00;100191.88;6334303;22;45662;-96
2022/04/12 04:29:08;;;;;;;;;3.00;3.00;;;;;15.13;100.00;100198.06;6308298;22;45385;-95
2022/04/12 04:31:33;;;;;;;;;4.00;4.00;;;;;15.16;100.00;100218.38;6308647;22;45409;-96
2022/04/12 04:33:59;;;;;;;;;5.00;3.00;;;;;15.03;100.00;100206.69;6335163;22;46931;-95
2022/04/12 04:36:24;;;;;;;;;2.00;1.67;;;;;15.02;100.00;100208.47;6350409;22;45938;-96
2022/04/12 04:38:49;;;;;;;;;2.67;2.67;;;;;15.06;100.00;100219.97;6336299;22;44680;-94
2022/04/12 04:41:15;;;;;;;;;2.00;2.00;;;;;15.04;100.00;100233.16;6334547;22;45302;-93
2022/04/12 04:43:40;;;;;;;;;3.33;2.00;;;;;15.02;100.00;100237.53;6332670;22;47145;-94
2022/04/12 04:46:06;;;;;;;;;1.67;1.67;;;;;14.99;100.00;100212.81;6318569;22;45934;-95
2022/04/12 04:48:33;;;;;;;;;2.00;2.00;;;;;14.96;100.00;100214.53;6309053;22;45392;-94
2022/04/12 04:51:00;;;;;;;;;3.00;1.00;;;;;14.87;100.00;100205.53;6307884;22;45417;-94
2022/04/12 04:53:28;;;;;;;;;2.00;2.00;;;;;15.12;100.00;100235.97;6307539;22;47033;-94
2022/04/12 04:55:53;;;;;;;;;3.00;3.00;;;;;14.96;100.00;100219.81;6333752;22;45573;-95
2022/04/12 04:58:18;;;;;;;;;3.00;3.00;;;;;14.84;100.00;100217.78;6308287;22;45284;-95
2022/04/12 05:00:44;;;;;;;;;2.33;2.33;;;;;14.87;100.00;100218.75;6308260;22;45538;-95
2022/04/12 05:03:09;;;;;;;;;3.00;2.00;;;;;14.81;100.00;100222.13;6306907;22;46661;-96
2022/04/12 05:05:35;;;;;;;;;2.33;2.00;;;;;14.83;100.00;100230.97;6308433;22;45629;-96
2022/04/12 05:08:02;;;;;;;;;3.33;2.67;;;;;14.80;100.00;100220.34;6310185;22;45379;-95
2022/04/12 05:10:29;;;;;;;;;4.67;3.67;;;;;14.84;100.00;100235.41;6309407;22;45286;-95
2022/04/12 05:12:56;;;;;;;;;2.00;2.00;;;;;14.78;100.00;100244.09;6308635;22;48231;-94
2022/04/12 05:15:22;;;;;;;;;3.00;3.00;;;;;14.81;100.00;100249.44;6308301;22;45256;-95
2022/04/12 05:17:50;;;;;;;;;2.00;2.00;;;;;14.76;100.00;100251.09;6308807;22;45388;-94
2022/04/12 05:20:16;;;;;;;;;2.00;2.00;;;;;14.72;100.00;100258.06;6335336;22;45317;-95
2022/04/12 05:22:41;;;;;;;;;1.00;1.00;;;;;14.80;100.00;100258.22;6308896;22;47531;-96
2022/04/12 05:25:07;;;;;;;;;4.00;2.00;;;;;14.68;100.00;100245.66;6335397;22;45357;-94
2022/04/12 05:27:34;;;;;;;;;2.33;2.33;;;;;14.66;100.00;100242.09;6336717;22;45436;-94
2022/04/12 05:30:00;;;;;;;;;3.00;3.00;;;;;14.63;100.00;100245.56;6335535;22;45484;-94
2022/04/12 05:32:26;;;;;;;;;3.00;3.00;;;;;14.75;100.00;100259.88;6309086;22;47306;-94
2022/04/12 05:34:52;;;;;;;;;4.00;4.00;;;;;14.66;100.00;100249.13;6334492;22;45307;-96
2022/04/12 05:37:17;;;;;;;;;2.67;2.67;;;;;14.73;100.00;100256.31;6308876;22;45389;-94
2022/04/12 05:39:43;;;;;;;;;3.00;3.00;;;;;14.75;100.00;100258.13;6308396;22;45398;-94
2022/04/12 05:42:09;;;;;;;;;1.33;1.33;;;;;14.78;100.00;100245.84;6309037;22;47049;-94
2022/04/12 05:44:34;;;;;;;;;3.00;3.00;;;;;14.88;100.00;100249.59;6308694;22;45266;-96
2022/04/12 05:47:01;;;;;;;;;3.33;3.00;;;;;14.93;100.00;100242.63;6335693;22;45260;-95
2022/04/12 05:49:27;;;;;;;;;2.67;1.67;;;;;14.92;100.00;100244.38;6308448;22;45330;-94
2022/04/12 05:51:53;;;;;;;;;1.00;1.00;;;;;15.09;100.00;100272.91;6309088;22;46993;-94
2022/04/12 05:54:21;;;;;;;;;2.00;2.00;;;;;15.13;100.00;100274.72;6308463;22;45396;-95
2022/04/12 05:56:46;;;;;;;;;2.00;2.00;;;;;15.24;100.00;100284.63;6309371;22;45387;-94
2022/04/12 05:59:12;;;;;;;;;1.33;1.33;;;;;15.24;100.00;100284.63;6308929;22;45521;-94
2022/04/12 06:01:38;;;;;;;;;2.00;2.00;;;;;15.31;100.00;100294.44;6334738;22;48212;-95
2022/04/12 06:04:06;;;;;;;;;1.00;1.00;;;;;15.32;100.00;100285.66;6307942;22;45511;-94
2022/04/12 06:06:32;;;;;;;;;6.00;3.00;;;;;15.25;100.00;100273.19;6308630;22;45214;-95
2022/04/12 06:08:59;;;;;;;;;6.00;2.67;;;;;15.26;100.00;100277.59;6308921;22;45171;-94
2022/04/12 06:11:24;;;;;;;;;2.33;2.33;;;;;15.31;100.00;100286.50;6311347;22;46706;-95
2022/04/12 06:13:49;;;;;;;;;5.00;1.67;;;;;15.33;100.00;100268.94;6334636;22;45359;-95
2022/04/12 06:16:15;;;;;;;;;3.00;3.00;;;;;15.50;100.00;100303.63;6309161;22;45908;-96
2022/04/12 06:18:40;;;;;;;;;3.33;3.00;;;;;15.59;100.00;100300.22;6336202;22;45531;-94
2022/04/12 06:21:06;;;;;;;;;1.33;1.33;;;;;15.71;100.00;100288.97;6309700;22;47262;-96
2022/04/12 06:23:31;;;;;;;;;3.33;3.00;;;;;15.80;100.00;100300.56;6310767;22;45416;-95
2022/04/12 06:25:56;;;;;;;;;2.33;2.33;;;;;15.74;100.00;100288.13;6305586;22;45237;-87
2022/04/12 06:28:22;;;;;;;;;4.00;2.00;;;;;15.85;100.00;100309.47;6335048;22;45351;-88
2022/04/12 06:30:51;;;;;;;;;2.00;2.00;;;;;15.92;100.00;100311.38;6333487;22;47818;-88
2022/04/12 06:33:16;;;;;;;;;3.00;3.00;;;;;15.97;100.00;100317.63;6334143;22;45534;-87
2022/04/12 06:35:41;;;;;;;;;6.00;2.67;;;;;16.00;100.00;100314.16;6333725;22;45705;-88
2022/04/12 06:38:08;;;;;;;;;1.33;1.33;;;;;16.17;100.00;100329.41;6335160;22;45383;-88
2022/04/12 06:40:35;;;;;;;;;3.67;2.00;;;;;16.17;100.00;100337.38;6334094;22;45365;-89
2022/04/12 06:43:01;;;;;;;;;2.00;2.00;;;;;16.19;100.00;100346.22;6305532;22;46389;-89
2022/04/12 06:45:26;;;;;;;;;3.00;3.00;;;;;16.30;100.00;100357.88;6305105;22;45384;-87
2022/04/12 06:47:58;;;;;;;;;3.00;2.00;;;;;16.37;100.00;100348.25;6306329;22;45449;-88
2022/04/12 06:50:24;;;;;;;;;3.00;3.00;;;;;16.41;100.00;100352.75;6332948;22;46439;-88
2022/04/12 06:52:51;;;;;;;;;3.00;3.00;;;;;16.45;100.00;100345.72;6334485;22;45728;-88
2022/04/12 06:55:16;;;;;;;;;5.00;3.00;;;;;16.48;100.00;100353.72;6329287;22;45297;-88
2022/04/12 06:57:42;;;;;;;;;4.00;3.00;;;;;16.52;100.00;100365.22;6305913;22;45466;-88
2022/04/12 07:00:09;;;;;;;;;8.67;6.00;;;;;16.51;100.00;100377.63;6333713;22;46309;-87
2022/04/12 07:02:34;;;;;;;;;3.00;2.00;;;;;16.56;100.00;100387.38;6330005;22;45327;-88
2022/04/12 07:05:01;;;;;;;;;3.00;3.00;;;;;16.57;100.00;100389.16;6333431;22;45301;-88
2022/04/12 07:07:26;;;;;;;;;2.67;2.67;;;;;16.59;100.00;100385.69;6333425;22;45313;-89
2022/04/12 07:09:52;;;;;;;;;2.67;2.67;;;;;16.64;100.00;100370.75;6331315;22;47938;-89
2022/04/12 07:12:17;;;;;;;;;2.33;2.00;;;;;16.66;100.00;100377.78;6306736;22;45423;-89
2022/04/12 07:14:42;;;;;;;;;2.00;2.00;;;;;16.71;100.00;100392.91;6331607;22;45276;-88
2022/04/12 07:17:08;;;;;;;;;4.00;4.00;;;;;16.78;100.00;100398.28;6332578;22;45639;-88
2022/04/12 07:19:33;;;;;;;;;3.00;2.67;;;;;16.81;100.00;100390.38;6334517;22;45454;-88
2022/04/12 07:21:58;;;;;;;;;4.00;3.00;;;;;16.88;100.00;100407.25;6332138;22;45470;-88
2022/04/12 07:24:24;;;;;;;;;3.67;2.00;;;;;16.88;100.00;100405.47;6305772;22;45787;-89
2022/04/12 07:26:49;;;;;;;;;2.00;2.00;;;;;16.96;100.00;100408.25;6306018;22;45238;-89
2022/04/12 07:29:15;;;;;;;;;1.33;1.33;;;;;17.01;100.00;100397.72;6305260;22;48165;-89
2022/04/12 07:31:40;;;;;;;;;2.33;1.67;;;;;17.09;100.00;100396.03;6332692;22;45599;-87
2022/04/12 07:34:07;;;;;;;;;3.67;3.00;;;;;17.13;100.00;100392.56;6302229;22;45532;-89
2022/04/12 07:36:33;;;;;;;;;2.33;2.33;;;;;17.22;100.00;100396.22;6298893;22;45359;-88
2022/04/12 07:38:58;;;;;;;;;3.00;3.00;;;;;17.31;100.00;100404.31;6300960;22;47755;-88
2022/04/12 07:41:24;;;;;;;;;1.33;0.67;;;;;17.40;100.00;100406.16;6303609;22;45785;-88
2022/04/12 07:43:49;;;;;;;;;2.67;2.00;;;;;17.43;100.00;100392.94;6331560;22;45398;-89
2022/04/12 07:46:15;;;;;;;;;3.33;2.00;;;;;17.50;100.00;100399.19;6329481;22;45356;-88
2022/04/12 07:48:42;;;;;;;;;3.00;2.00;;;;;17.56;100.00;100393.06;6296717;22;47940;-90
2022/04/12 07:51:07;;;;;;;;;5.67;0.00;;;;;17.64;100.00;100400.25;6330372;22;45261;-89
2022/04/12 07:53:33;;;;;;;;;4.00;4.00;;;;;17.77;100.00;100405.69;6304040;22;45374;-86
2022/04/12 07:55:58;;;;;;;;;4.00;4.00;;;;;17.87;100.00;100404.91;6302546;22;45400;-85
2022/04/12 07:58:24;;;;;;;;;2.00;2.00;;;;;17.98;100.00;100407.66;6330871;22;45669;-85
2022/04/12 08:00:49;;;;;;;;;3.00;2.00;;;;;18.11;100.00;100409.53;6329217;22;45351;-86
2022/04/12 08:03:15;;;;;;;;;3.33;2.33;;;;;18.18;100.00;100404.28;6328106;22;45647;-87
2022/04/12 08:05:40;;;;;;;;;3.00;3.00;;;;;18.26;100.00;100399.06;6329894;22;45307;-87
2022/04/12 08:08:05;;;;;;;;;3.00;3.00;;;;;18.38;100.00;100403.56;6330530;22;46095;-86
2022/04/12 08:10:31;;;;;;;;;3.00;2.67;;;;;18.47;100.00;100392.13;6331454;22;45324;-88
2022/04/12 08:12:57;;;;;;;;;3.00;1.67;;;;;18.56;100.00;100390.38;6333445;22;45342;-89
2022/04/12 08:15:23;;;;;;;;;2.33;2.33;;;;;18.64;100.00;100386.91;6329596;22;45441;-89
2022/04/12 08:17:49;;;;;;;;;4.00;3.00;;;;;18.71;100.00;100390.47;6332218;22;46083;-92
2022/04/12 08:20:14;;;;;;;;;1.67;1.67;;;;;18.82;100.00;100389.66;6305771;22;45699;-84
2022/04/12 08:22:40;;;;;;;;;1.00;1.00;;;;;18.95;100.00;100395.94;6332348;22;45207;-85
2022/04/12 08:25:07;;;;;;;;;0.67;0.67;;;;;19.07;100.00;100390.66;6343480;22;45352;-85
2022/04/12 08:27:33;;;;;;;;;2.00;2.00;;;;;19.18;100.00;100392.50;6343373;22;46300;-85
2022/04/12 08:29:58;;;;;;;;;2.33;1.33;;;;;19.30;100.00;100399.66;6339524;22;45655;-85
2022/04/12 08:32:24;;;;;;;;;4.00;2.00;;;;;19.42;100.00;100407.69;6306741;22;45363;-85
2022/04/12 08:34:50;;;;;;;;;1.33;1.33;;;;;19.51;100.00;100400.59;6303883;22;45467;-85
2022/04/12 08:37:15;;;;;;;;;2.00;1.00;;;;;19.63;100.00;100405.97;6294599;22;47809;-84
2022/04/12 08:39:41;;;;;;;;;3.00;3.00;;;;;19.77;100.00;100400.66;6331112;22;45351;-83
2022/04/12 08:42:06;;;;;;;;;2.33;1.67;;;;;19.86;100.00;100390.91;6329800;22;45247;-83
2022/04/12 08:44:33;;;;;;;;;1.67;1.00;;;;;19.96;100.00;100395.34;6331385;22;45818;-85
2022/04/12 08:47:03;;;;;;;;;0.00;0.00;;;;;20.05;100.00;100390.94;6332922;22;46075;-92
2022/04/12 08:49:29;;;;;;;;;1.00;1.00;;;;;20.14;100.00;100406.94;6332341;22;45372;-88
2022/04/12 08:51:55;;;;;;;;;0.33;0.33;;;;;20.26;100.00;100408.69;6303907;22;45403;-89
2022/04/12 08:54:20;;;;;;;;;2.00;2.00;;;;;20.39;100.00;100398.03;6330870;22;45735;-90
2022/04/12 08:56:51;;;;;;;;;2.00;2.00;;;;;20.48;100.00;100405.13;6304665;22;47958;-91
2022/04/12 08:59:18;;;;;;;;;2.00;1.00;;;;;20.48;100.00;100406.03;6305730;22;45691;-92
2022/04/12 09:01:46;;;;;;;;;1.00;1.00;;;;;20.51;100.00;100406.00;6338482;22;45535;-94
2022/04/12 09:04:11;;;;;;;;;1.00;1.00;;;;;20.53;100.00;100406.91;6334335;22;45503;-93
2022/04/12 09:06:51;;;;;;;;;3.33;1.00;;;;;20.56;100.00;100395.34;6330519;22;48369;-91
2022/04/12 09:09:19;;;;;;;;;2.33;2.33;;;;;20.68;100.00;100420.19;6305081;22;45309;-93
2022/04/12 09:12:18;;;;;;;;;2.00;1.00;;;;;20.75;100.00;100414.84;6334271;22;45364;-90
2022/04/12 09:14:52;;;;;;;;;1.00;1.00;;;;;20.79;100.00;100404.19;6173299;23;45554;-88
2022/04/12 09:17:35;;;;;;;;;2.00;0.00;;;;;20.88;100.00;100413.03;6174905;23;45351;-94
2022/04/12 09:20:03;;;;;;;;;1.00;1.00;;;;;20.95;100.00;100397.88;6152128;23;45401;-95
2022/04/12 09:22:31;;;;;;;;;2.00;1.00;;;;;21.03;100.00;100394.38;6176640;23;45410;-94
2022/04/12 09:25:00;;;;;;;;;1.67;1.00;;;;;21.14;100.00;100403.19;6178267;23;45327;-91
2022/04/12 09:27:30;;;;;;;;;2.00;2.00;;;;;21.23;100.00;100388.03;6176788;23;48786;-93
2022/04/12 09:30:01;;;;;;;;;3.33;2.00;;;;;21.33;100.00;100392.44;6165309;23;45452;-89
2022/04/12 09:32:28;;;;;;;;;2.00;1.00;;;;;21.44;100.00;100393.25;6176126;23;45276;-89
2022/04/12 09:34:55;;;;;;;;;1.67;1.00;;;;;21.55;100.00;100378.97;6174298;23;45437;-89
2022/04/12 09:37:29;;;;;;;;;1.00;0.67;;;;;21.67;100.00;100383.34;6173778;23;46483;-89
2022/04/12 09:40:02;;;;;;;;;2.00;2.00;;;;;21.75;100.00;100384.16;6175059;23;45892;-94
2022/04/12 09:42:36;;;;;;;;;1.67;1.00;;;;;21.86;100.00;100400.13;6177295;23;45757;-90
2022/04/12 09:45:06;;;;;;;;;2.67;2.00;;;;;21.90;100.00;100390.34;6174991;23;45967;-89
2022/04/12 09:47:32;;;;;;;;;1.00;1.00;;;;;21.97;100.00;100378.69;6173999;23;46411;-90
2022/04/12 09:49:59;;;;;;;;;1.00;1.00;;;;;22.08;100.00;100386.63;6213604;22;45861;-90
2022/04/12 09:52:24;;;;;;;;;2.00;2.00;;;;;22.13;100.00;100380.34;6324860;22;45335;-92
2022/04/12 09:54:51;;;;;;;;;3.00;2.00;;;;;22.20;100.00;100374.94;6332873;22;45542;-91
2022/04/12 09:57:17;;;;;;;;;1.00;1.00;;;;;22.26;100.00;100374.00;6330154;22;48145;-90
2022/04/12 09:59:44;;;;;;;;;0.00;0.00;;;;;22.30;100.00;100375.72;6303255;22;45304;-89
2022/04/12 10:02:11;;;;;;;;;1.67;1.00;;;;;22.35;100.00;100372.13;6303690;22;45513;-90
2022/04/12 10:04:38;;;;;;;;;0.67;0.67;;;;;22.42;100.00;100385.41;6332621;22;45538;-90
2022/04/12 10:07:04;;;;;;;;;3.00;1.67;;;;;22.54;100.00;100391.56;6302508;22;48107;-91
2022/04/12 10:09:31;;;;;;;;;1.67;1.67;;;;;22.63;100.00;100385.19;6302406;22;46086;-89
2022/04/12 10:11:58;;;;;;;;;3.33;1.67;;;;;22.71;99.71;100379.81;6331862;22;45300;-91
2022/04/12 10:14:23;;;;;;;;;3.33;2.00;;;;;22.78;100.00;100373.50;6331908;22;45658;-92
2022/04/12 10:16:49;;;;;;;;;1.00;1.00;;;;;22.90;99.96;100368.88;6304121;22;48738;-94
2022/04/12 10:19:15;;;;;;;;;1.33;1.33;;;;;22.95;100.00;100359.00;6314461;22;45896;-90
2022/04/12 10:21:41;;;;;;;;;2.00;2.00;;;;;23.03;99.78;100350.88;6313427;22;45344;-93
2022/04/12 10:24:10;;;;;;;;;1.00;1.00;;;;;23.13;99.64;100343.63;6331212;22;45308;-88
2022/04/12 10:26:36;;;;;;;;;1.33;1.33;;;;;23.22;99.08;100347.03;6332276;22;45444;-93
2022/04/12 10:29:06;;;;;;;;;8.00;6.33;;;;;23.36;99.40;100335.25;6302426;22;45786;-89
2022/04/12 10:31:32;;;;;;;;;1.00;1.00;;;;;23.62;99.92;100330.44;6331764;22;45410;-89
2022/04/12 10:34:05;;;;;;;;;5.00;2.00;;;;;23.91;99.02;100329.09;6331677;22;45230;-88
2022/04/12 10:37:04;;;;;;;;;3.67;2.00;;;;;24.07;98.87;100335.03;6329324;22;47341;-90
2022/04/12 10:39:36;;;;;;;;;2.67;2.00;;;;;24.22;98.28;100333.88;6302636;22;45316;-88
2022/04/12 10:42:05;;;;;;;;;1.33;1.33;;;;;24.37;98.23;100336.34;6332891;22;45403;-89
2022/04/12 10:44:46;;;;;;;;;3.00;2.00;;;;;24.49;98.17;100351.31;6302380;22;45504;-91
2022/04/12 10:47:24;;;;;;;;;2.00;2.00;;;;;24.66;98.90;100356.38;6331302;22;46539;-88
2022/04/12 10:50:00;;;;;;;;;3.00;2.67;;;;;24.85;97.59;100367.59;6310865;22;45787;-91
2022/04/12 10:52:42;;;;;;;;;3.33;2.00;;;;;25.11;97.31;100371.56;6333914;22;45205;-89
2022/04/12 10:55:11;;;;;;;;;2.33;2.33;;;;;25.40;95.28;100370.94;6331828;22;45548;-89
2022/04/12 10:57:36;;;;;;;;;1.00;1.00;;;;;25.65;97.29;100348.88;6303305;22;47061;-87
2022/04/12 11:00:11;;;;;;;;;3.33;1.00;;;;;26.22;97.97;100365.41;6332400;22;45452;-89
2022/04/12 11:02:53;;;;;;;;;1.00;1.00;;;;;26.83;97.48;100367.34;6331809;22;45911;-89
2022/04/12 11:05:37;;;;;;;;;2.00;2.00;;;;;27.45;94.01;100389.78;6305545;22;45298;-88
2022/04/12 11:08:14;;;;;;;;;0.67;0.33;;;;;28.06;94.77;100394.19;6331231;22;48437;-88
2022/04/12 11:10:52;;;;;;;;;2.00;2.00;;;;;29.21;92.39;100412.66;6329447;22;46113;-88
2022/04/12 11:13:22;;;;;;;;;3.67;2.00;;;;;30.47;90.97;100386.84;6329574;22;45466;-88
2022/04/12 11:15:55;;;;;;;;;2.33;1.67;;;;;31.63;90.13;100414.09;6331353;22;45356;-87
2022/04/12 11:18:21;;;;;;;;;2.00;2.00;;;;;32.26;87.97;100410.13;6332713;22;46105;-87
2022/04/12 11:21:02;;;;;;;;;2.33;1.33;;;;;32.79;83.15;100407.38;6332394;22;45261;-86
2022/04/12 11:24:02;;;;;;;;;1.00;1.00;;;;;33.28;82.21;100411.09;6332942;22;45261;-88
2022/04/12 11:26:40;;;;;;;;;3.00;1.00;;;;;33.54;78.71;100418.72;6333010;22;45382;-88
2022/04/12 11:29:09;;;;;;;;;1.67;0.00;;;;;34.13;80.73;100417.16;6331551;22;46595;-87